Time;durP1;ratioP1;P1;durP2;ratioP2;P2;SDS_P1;SDS_P2;PMS_P1;PMS_P2;Temp;Humidity;BMP_temperature;BMP_pressure;BME280_temperature;BME280_humidity;BME280_pressure;Samples;Min_cycle;Max_cycle;Signal;HPM_P1;HPM_P2
2022/12/23 00:00:26;;;;;;;16.05;11.55;;;;;;;5.57;90.11;99799.71;1620619;86;21541;-76
2022/12/23 00:03:11;;;;;;;17.70;12.37;;;;;;;5.57;90.14;99801.84;1619492;86;21796;-76
2022/12/23 00:05:56;;;;;;;14.23;12.15;;;;;;;5.58;90.14;99802.27;1620567;85;20934;-76
2022/12/23 00:08:42;;;;;;;16.20;12.37;;;;;;;5.59;90.11;99804.39;1621568;85;20945;-76
2022/12/23 00:11:28;;;;;;;16.27;12.55;;;;;;;5.60;90.14;99800.54;1621822;85;21023;-76
2022/12/23 00:17:16;;;;;;;16.00;11.80;;;;;;;5.62;90.12;99796.25;1622038;86;21416;-76
2022/12/23 00:20:01;;;;;;;15.15;10.08;;;;;;;5.63;90.14;99794.53;1617820;85;20970;-76
2022/12/23 00:23:03;;;;;;;12.25;10.00;;;;;;;5.65;90.12;99790.23;1621770;86;21637;-76
2022/12/23 00:25:48;;;;;;;12.43;9.45;;;;;;;5.65;90.09;99789.80;1619646;85;21593;-76
2022/12/23 00:28:33;;;;;;;10.10;9.10;;;;;;;5.64;90.08;99795.80;1615470;86;21049;-76
2022/12/23 00:31:20;;;;;;;11.63;9.50;;;;;;;5.65;90.07;99797.93;1628510;86;21014;-75
2022/12/23 00:34:04;;;;;;;12.05;8.73;;;;;;;5.67;90.12;99795.35;1602118;86;20940;-76
2022/12/23 00:36:49;;;;;;;9.35;8.45;;;;;;;5.68;90.12;99786.36;1620702;86;21426;-76
2022/12/23 00:42:53;;;;;;;11.18;8.88;;;;;;;5.68;90.09;99808.16;1619700;85;20945;-76
2022/12/23 00:45:38;;;;;;;12.95;9.63;;;;;;;5.69;90.09;99812.42;1634882;85;20982;-76
2022/12/23 00:51:26;;;;;;;12.25;9.95;;;;;;;5.72;90.16;99809.80;1621191;86;20953;-76
2022/12/23 00:54:10;;;;;;;10.60;9.58;;;;;;;5.74;90.15;99805.51;1623271;85;20989;-76
2022/12/23 00:56:55;;;;;;;13.72;11.18;;;;;;;5.75;90.16;99807.21;1621132;86;21422;-76
2022/12/23 00:59:40;;;;;;;10.63;9.53;;;;;;;5.76;90.12;99810.20;1598886;87;20939;-77
2022/12/23 01:05:35;;;;;;;14.40;10.23;;;;;;;5.77;90.13;99800.35;1585430;87;20971;-76
2022/12/23 01:08:10;;;;;;;15.25;11.08;;;;;;;5.76;90.09;99795.23;1593571;88;21915;-76
2022/12/23 01:10:55;;;;;;;15.93;11.12;;;;;;;5.74;90.08;99791.41;1630144;85;20985;-76
2022/12/23 01:13:40;;;;;;;12.98;11.08;;;;;;;5.74;90.06;99790.13;1628431;85;21080;-76
2022/12/23 01:16:25;;;;;;;17.10;12.35;;;;;;;5.74;90.08;99784.14;1596343;87;21452;-76
2022/12/23 01:19:11;;;;;;;18.62;13.75;;;;;;;5.73;90.04;99785.00;1600009;87;21014;-76
2022/12/23 01:24:29;;;;;;;18.92;13.22;;;;;;;5.71;90.01;99788.90;1788015;77;23328;-76
2022/12/23 01:27:14;;;;;;;17.50;12.77;;;;;;;5.65;90.02;99792.38;1720063;81;612338;-76
2022/12/23 01:29:59;;;;;;;18.98;13.80;;;;;;;5.64;90.04;99777.00;1663666;84;21042;-75
2022/12/23 01:32:44;;;;;;;22.67;14.40;;;;;;;5.64;90.06;99771.87;1646210;85;21131;-75
2022/12/23 01:35:29;;;;;;;16.32;13.58;;;;;;;5.63;90.04;99776.58;1637790;85;21974;-76
2022/12/23 01:38:14;;;;;;;18.30;12.58;;;;;;;5.62;90.04;99779.58;1637095;85;21128;-76
2022/12/23 01:41:00;;;;;;;19.35;13.40;;;;;;;5.64;90.09;99784.26;1638365;86;21016;-76
2022/12/23 01:43:51;;;;;;;16.25;13.53;;;;;;;5.64;90.09;99775.72;1638248;85;21063;-76
2022/12/23 01:46:36;;;;;;;25.17;14.68;;;;;;;5.63;90.06;99783.84;1638893;86;20996;-76
2022/12/23 01:49:21;;;;;;;20.37;14.40;;;;;;;5.64;90.08;99791.95;1638284;86;21029;-76
2022/12/23 01:52:07;;;;;;;20.68;14.00;;;;;;;5.66;90.08;99781.68;1638393;85;21132;-76
2022/12/23 01:54:52;;;;;;;22.77;14.03;;;;;;;5.67;90.09;99774.84;1637489;85;21746;-76
2022/12/23 01:57:40;;;;;;;20.15;14.07;;;;;;;5.67;90.08;99772.27;1640525;85;20981;-76
2022/12/23 02:03:41;;;;;;;19.52;13.48;;;;;;;5.66;90.05;99772.70;1639940;85;20989;-76
2022/12/23 02:09:43;;;;;;;23.38;16.10;;;;;;;5.64;90.07;99771.44;1583261;87;20997;-77
2022/12/23 02:12:42;;;;;;;27.87;18.80;;;;;;;5.58;89.84;99771.49;1605715;87;20929;-76
2022/12/23 02:19:02;;;;;;;25.68;15.75;;;;;;;5.47;89.89;99769.89;1606172;87;20988;-76
2022/12/23 02:22:13;;;;;;;17.17;13.38;;;;;;;5.41;89.87;99769.51;1608679;87;20969;-76
2022/12/23 02:25:03;;;;;;;20.37;13.83;;;;;;;5.38;89.88;99764.84;1571785;88;21591;-76
2022/12/23 02:28:16;;;;;;;20.45;13.68;;;;;;;5.34;89.85;99769.14;1599139;87;20940;-76
2022/12/23 02:31:30;;;;;;;18.50;13.48;;;;;;;5.30;89.90;99759.34;1613692;86;21557;-76
2022/12/23 02:34:29;;;;;;;17.80;13.30;;;;;;;5.30;89.95;99762.34;1615443;86;20982;-76
2022/12/23 02:37:37;;;;;;;18.12;14.10;;;;;;;5.28;89.93;99762.78;1600326;87;21378;-76
2022/12/23 02:41:00;;;;;;;21.57;13.32;;;;;;;5.26;89.89;99770.48;1615595;87;21361;-76
2022/12/23 02:43:49;;;;;;;18.05;12.73;;;;;;;5.25;89.96;99764.94;1615788;87;21357;-76
2022/12/23 02:46:48;;;;;;;15.15;12.60;;;;;;;5.25;89.96;99757.25;1617074;87;21427;-76
2022/12/23 02:49:40;;;;;;;17.25;12.93;;;;;;;5.24;89.94;99755.55;1615003;86;20999;-76
2022/12/23 02:52:29;;;;;;;18.50;13.38;;;;;;;5.22;89.93;99747.45;1599171;87;20973;-76
2022/12/23 02:55:22;;;;;;;20.12;14.13;;;;;;;5.23;89.96;99758.13;1586852;87;20984;-76
2022/12/23 02:58:11;;;;;;;23.52;15.05;;;;;;;5.22;89.96;99761.12;1621607;86;20972;-76
2022/12/23 03:00:57;;;;;;;23.10;15.80;;;;;;;5.22;89.97;99760.27;1615636;86;20936;-76
2022/12/23 03:03:43;;;;;;;25.08;16.93;;;;;;;5.22;89.95;99758.98;1593340;87;21527;-76
2022/12/23 03:06:32;;;;;;;29.25;18.35;;;;;;;5.21;89.91;99758.56;1621651;86;20960;-76
2022/12/23 03:09:37;;;;;;;32.13;19.07;;;;;;;5.19;89.90;99758.61;1594412;87;21734;-77
2022/12/23 03:12:36;;;;;;;38.60;21.52;;;;;;;5.20;89.98;99751.77;1610306;86;20940;-76
2022/12/23 03:15:38;;;;;;;34.45;21.27;;;;;;;5.21;89.98;99754.72;1615338;86;20944;-76
2022/12/23 03:18:51;;;;;;;35.43;20.77;;;;;;;5.20;90.01;99753.88;1612724;86;20936;-76
2022/12/23 03:21:56;;;;;;;41.23;22.22;;;;;;;5.22;90.00;99756.42;1614638;86;20947;-76
2022/12/23 03:24:46;;;;;;;42.50;22.47;;;;;;;5.22;90.03;99758.55;1614475;86;21063;-76
2022/12/23 03:27:42;;;;;;;38.42;21.75;;;;;;;5.21;89.98;99755.57;1616188;85;20947;-76
2022/12/23 03:30:28;;;;;;;36.98;22.20;;;;;;;5.22;90.03;99755.98;1622959;86;25060;-76
2022/12/23 03:33:26;;;;;;;43.70;22.70;;;;;;;5.23;90.03;99755.56;1611560;86;21334;-76
2022/12/23 03:36:20;;;;;;;50.10;25.77;;;;;;;5.25;90.11;99750.84;1611918;86;20995;-76
2022/12/23 03:39:09;;;;;;;40.05;23.52;;;;;;;5.27;90.07;99745.70;1613149;86;21401;-76
2022/12/23 03:41:59;;;;;;;35.00;20.97;;;;;;;5.27;90.06;99741.42;1613950;86;21469;-76
2022/12/23 03:44:48;;;;;;;35.10;19.95;;;;;;;5.29;90.07;99739.70;1617542;85;21453;-76
2022/12/23 03:47:38;;;;;;;33.60;19.23;;;;;;;5.30;90.05;99741.83;1615997;86;21932;-76
2022/12/23 03:50:24;;;;;;;35.83;19.65;;;;;;;5.30;90.01;99734.99;1302702;87;5002257;-76
2022/12/23 03:53:18;;;;;;;37.33;20.25;;;;;;;5.29;90.05;99729.88;1591661;87;20946;-76
2022/12/23 03:56:11;;;;;;;38.25;21.07;;;;;;;5.30;90.04;99731.58;1612421;86;20940;-76
2022/12/23 03:59:00;;;;;;;38.13;20.85;;;;;;;5.28;90.00;99735.44;1614162;86;20927;-76
2022/12/23 04:02:04;;;;;;;35.68;20.90;;;;;;;5.29;90.04;99738.85;1610998;86;20935;-76
2022/12/23 04:05:21;;;;;;;42.73;21.12;;;;;;;5.28;90.04;99732.88;1612634;86;20959;-76
2022/12/23 04:08:35;;;;;;;37.78;20.23;;;;;;;5.28;90.05;99734.16;1614723;86;20944;-76
2022/12/23 04:11:20;;;;;;;41.35;22.00;;;;;;;5.28;90.11;99716.22;1582065;86;20991;-76
2022/12/23 04:14:06;;;;;;;44.60;21.48;;;;;;;5.31;90.12;99711.49;1611433;86;21524;-76
2022/12/23 04:16:55;;;;;;;46.20;23.27;;;;;;;5.33;90.14;99713.61;1611942;86;21583;-76
2022/12/23 04:19:44;;;;;;;43.08;23.92;;;;;;;5.33;90.10;99717.45;1610764;86;21170;-76
2022/12/23 04:22:28;;;;;;;39.75;21.37;;;;;;;5.33;90.11;99720.87;1585831;88;21149;-76
2022/12/23 04:25:15;;;;;;;41.53;22.40;;;;;;;5.33;90.07;99718.73;1598850;87;21143;-76
2022/12/23 04:28:01;;;;;;;45.45;23.12;;;;;;;5.30;90.05;99711.92;1601798;86;21007;-76
2022/12/23 04:30:46;;;;;;;49.15;23.47;;;;;;;5.31;90.07;99708.50;1604609;86;21094;-76
2022/12/23 04:33:31;;;;;;;54.45;24.67;;;;;;;5.31;90.08;99712.77;1604608;86;21167;-76
2022/12/23 04:36:16;;;;;;;46.28;23.35;;;;;;;5.30;90.07;99712.36;1601823;87;21094;-76
2022/12/23 04:39:02;;;;;;;45.92;21.55;;;;;;;5.31;90.11;99705.94;1622470;86;21110;-76
2022/12/23 04:41:47;;;;;;;54.40;22.50;;;;;;;5.32;90.10;99719.17;1618554;86;21074;-76
2022/12/23 04:44:32;;;;;;;52.80;23.73;;;;;;;5.31;90.13;99721.75;1602472;86;21103;-76
2022/12/23 04:47:18;;;;;;;48.40;23.10;;;;;;;5.28;90.13;99714.94;1596452;86;21674;-76
2022/12/23 04:50:05;;;;;;;46.58;23.38;;;;;;;5.28;90.13;99717.50;1613493;86;21078;-76
2022/12/23 04:52:49;;;;;;;53.23;23.52;;;;;;;5.30;90.14;99718.77;1600909;87;20982;-76
2022/12/23 04:55:35;;;;;;;48.20;22.95;;;;;;;5.31;90.21;99712.34;1607654;86;21511;-76
2022/12/23 04:58:24;;;;;;;55.50;26.00;;;;;;;5.29;90.13;99708.09;1621941;85;447387;-76
2022/12/23 05:01:10;;;;;;;47.03;23.07;;;;;;;5.28;90.14;99708.95;1646393;84;20987;-76
2022/12/23 05:03:55;;;;;;;46.63;23.65;;;;;;;5.28;90.14;99711.09;1646271;84;20963;-76
2022/12/23 05:06:40;;;;;;;44.27;24.10;;;;;;;5.29;90.17;99708.94;1645482;84;21357;-76
2022/12/23 05:09:25;;;;;;;42.00;22.17;;;;;;;5.32;90.20;99703.79;1645022;84;21393;-76
2022/12/23 05:12:11;;;;;;;41.73;23.52;;;;;;;5.31;90.18;99703.37;1642409;85;20943;-76
2022/12/23 05:14:56;;;;;;;40.73;21.67;;;;;;;5.33;90.20;99704.20;1636215;84;20935;-76
2022/12/23 05:17:41;;;;;;;38.13;21.50;;;;;;;5.36;90.21;99703.77;1646204;84;21648;-76
2022/12/23 05:20:26;;;;;;;39.98;21.52;;;;;;;5.37;90.21;99706.31;1641241;85;20983;-76
2022/12/23 05:23:12;;;;;;;36.75;20.40;;;;;;;5.38;90.21;99713.57;1642642;84;20997;-76
2022/12/23 05:25:56;;;;;;;36.40;20.68;;;;;;;5.39;90.23;99710.98;1642147;85;20931;-75
2022/12/23 05:28:44;;;;;;;36.30;21.02;;;;;;;5.40;90.22;99712.69;1642961;85;20979;-75
2022/12/23 05:31:28;;;;;;;33.00;19.95;;;;;;;5.41;90.22;99704.56;1630643;86;21023;-75
2022/12/23 05:34:13;;;;;;;33.70;19.98;;;;;;;5.43;90.22;99705.41;1602217;87;21601;-75
2022/12/23 05:36:58;;;;;;;34.60;20.12;;;;;;;5.43;90.24;99699.84;1625001;85;21068;-75
2022/12/23 05:39:43;;;;;;;34.38;19.27;;;;;;;5.45;90.21;99701.11;1618392;86;21135;-75
2022/12/23 05:42:29;;;;;;;33.90;18.85;;;;;;;5.45;90.23;99703.23;1622400;84;21124;-75
2022/12/23 05:45:14;;;;;;;29.32;18.07;;;;;;;5.47;90.27;99699.38;1617494;86;21091;-75
2022/12/23 05:47:59;;;;;;;29.12;16.50;;;;;;;5.48;90.24;99697.23;1617342;86;21599;-76
2022/12/23 05:50:44;;;;;;;24.40;16.62;;;;;;;5.47;90.20;99700.23;1617781;86;21515;-76
2022/12/23 05:53:30;;;;;;;28.27;17.35;;;;;;;5.46;90.18;99697.68;1615729;86;21084;-76
2022/12/23 05:56:15;;;;;;;31.20;18.13;;;;;;;5.45;90.19;99693.42;1615996;86;21591;-76
2022/12/23 05:59:00;;;;;;;25.10;16.87;;;;;;;5.44;90.22;99696.41;1551883;85;5000735;-76
2022/12/23 06:01:45;;;;;;;28.73;17.62;;;;;;;5.45;90.24;99694.70;1598237;86;21167;-76
2022/12/23 06:04:31;;;;;;;30.80;17.57;;;;;;;5.45;90.24;99698.11;1641583;85;21045;-76
2022/12/23 06:07:16;;;;;;;29.12;18.25;;;;;;;5.44;90.21;99693.85;1598576;86;21110;-76
2022/12/23 06:10:01;;;;;;;24.98;15.88;;;;;;;5.45;90.23;99695.55;1604254;86;21122;-76
2022/12/23 06:12:46;;;;;;;25.47;16.67;;;;;;;5.45;90.26;99692.98;1599722;87;21146;-76
2022/12/23 06:15:32;;;;;;;23.85;15.70;;;;;;;5.46;90.25;99692.55;1587307;88;21162;-76
2022/12/23 06:18:17;;;;;;;26.12;15.68;;;;;;;5.46;90.25;99686.14;1601647;86;21095;-76
2022/12/23 06:21:03;;;;;;;21.57;15.08;;;;;;;5.47;90.26;99690.41;1585880;88;21153;-76
2022/12/23 06:23:48;;;;;;;24.18;15.72;;;;;;;5.47;90.26;99689.98;1600588;86;21756;-75
2022/12/23 06:26:34;;;;;;;23.10;15.48;;;;;;;5.49;90.28;99692.09;1586481;88;21147;-75
2022/12/23 06:29:20;;;;;;;26.48;17.05;;;;;;;5.49;90.28;99696.37;1601564;86;21554;-76
2022/12/23 06:32:05;;;;;;;23.38;15.85;;;;;;;5.50;90.28;99705.33;1599958;87;21151;-76
2022/12/23 06:34:52;;;;;;;25.73;15.87;;;;;;;5.49;90.23;99703.63;1588627;86;21768;-76
2022/12/23 06:37:37;;;;;;;20.02;14.98;;;;;;;5.49;90.29;99702.34;1600966;87;21107;-76
2022/12/23 06:40:22;;;;;;;25.57;15.78;;;;;;;5.50;90.29;99696.36;1647972;85;21080;-76
2022/12/23 06:43:07;;;;;;;25.08;16.77;;;;;;;5.50;90.26;99692.51;1645912;85;21719;-76
2022/12/23 06:45:52;;;;;;;28.30;17.15;;;;;;;5.48;90.17;99692.95;1643615;85;21060;-76
2022/12/23 06:48:37;;;;;;;28.57;17.00;;;;;;;5.42;90.12;99696.02;1643690;85;21077;-76
2022/12/23 06:51:22;;;;;;;27.95;16.52;;;;;;;5.42;90.26;99699.86;1643386;85;21615;-76
2022/12/23 06:54:13;;;;;;;25.20;15.88;;;;;;;5.43;90.33;99702.41;1643986;85;21067;-76
2022/12/23 06:56:58;;;;;;;22.60;16.15;;;;;;;5.44;90.30;99701.55;1644798;85;20921;-76
2022/12/23 06:59:43;;;;;;;27.98;17.15;;;;;;;5.42;90.23;99699.42;1638020;84;342646;-76
2022/12/23 07:02:27;;;;;;;28.27;18.70;;;;;;;5.41;90.25;99690.03;1639943;85;21523;-74
2022/12/23 07:05:13;;;;;;;26.93;19.15;;;;;;;5.40;90.21;99690.05;1641108;85;20927;-75
2022/12/23 07:07:58;;;;;;;32.08;18.52;;;;;;;5.36;90.13;99686.67;1638866;85;20946;-75
2022/12/23 07:10:42;;;;;;;30.88;18.75;;;;;;;5.34;90.25;99683.27;1641008;85;21534;-75
2022/12/23 07:13:27;;;;;;;34.70;21.17;;;;;;;5.33;90.25;99677.30;1640165;85;21393;-75
2022/12/23 07:16:13;;;;;;;47.50;27.65;;;;;;;5.34;90.34;99676.86;1640842;85;20990;-75
2022/12/23 07:18:58;;;;;;;41.28;26.40;;;;;;;5.35;90.36;99676.00;1642786;85;20946;-75
2022/12/23 07:21:43;;;;;;;35.80;23.05;;;;;;;5.37;90.38;99679.39;1639168;85;20998;-75
2022/12/23 07:24:28;;;;;;;27.13;17.85;;;;;;;5.37;90.35;99678.11;1638256;85;20937;-75
2022/12/23 07:27:13;;;;;;;26.50;17.77;;;;;;;5.40;90.42;99682.36;1641566;85;21567;-75
2022/12/23 07:29:58;;;;;;;22.27;15.60;;;;;;;5.43;90.43;99679.77;1642932;85;20983;-75
2022/12/23 07:32:42;;;;;;;25.02;15.83;;;;;;;5.44;90.38;99669.92;1640898;85;20958;-75
2022/12/23 07:35:27;;;;;;;20.92;14.95;;;;;;;5.44;90.38;99674.63;1637310;84;21396;-75
2022/12/23 07:38:12;;;;;;;22.32;15.23;;;;;;;5.46;90.40;99672.05;1638210;84;20994;-75
2022/12/23 07:40:57;;;;;;;22.93;15.40;;;;;;;5.47;90.38;99669.47;1634607;85;20986;-75
2022/12/23 07:43:42;;;;;;;26.00;16.77;;;;;;;5.48;90.39;99667.31;1640137;85;20946;-75
2022/12/23 07:46:27;;;;;;;25.52;16.45;;;;;;;5.50;90.40;99668.59;1636331;85;20974;-75
2022/12/23 07:49:12;;;;;;;26.42;17.35;;;;;;;5.49;90.43;99660.05;1632525;85;20974;-75
2022/12/23 07:51:57;;;;;;;25.17;16.55;;;;;;;5.50;90.44;99665.59;1629700;84;21408;-75
2022/12/23 07:54:42;;;;;;;36.90;23.45;;;;;;;5.53;90.51;99662.98;1639046;85;20946;-75
2022/12/23 07:57:28;;;;;;;37.30;25.27;;;;;;;5.57;90.54;99665.09;1617179;86;20943;-75
2022/12/23 08:00:14;;;;;;;55.35;32.63;;;;;;;5.59;90.53;99668.05;1639596;85;21467;-75
2022/12/23 08:02:59;;;;;;;45.48;29.92;;;;;;;5.63;90.53;99672.72;1638412;85;20946;-75
2022/12/23 08:05:44;;;;;;;38.42;24.98;;;;;;;5.65;90.51;99672.27;1639764;85;20998;-75
2022/12/23 08:08:29;;;;;;;34.45;22.62;;;;;;;5.68;90.50;99680.36;1640207;85;21434;-78
2022/12/23 08:11:15;;;;;;;35.95;22.52;;;;;;;5.69;90.50;99679.50;1636083;85;21863;-77
2022/12/23 08:14:00;;;;;;;31.70;22.95;;;;;;;5.70;90.49;99674.78;1632476;85;20954;-77
2022/12/23 08:16:47;;;;;;;28.20;19.45;;;;;;;5.72;90.51;99671.30;1646910;85;21410;-77
2022/12/23 08:19:32;;;;;;;21.75;16.55;;;;;;;5.73;90.50;99676.84;1637546;85;20930;-76
2022/12/23 08:22:17;;;;;;;21.17;15.18;;;;;;;5.74;90.47;99668.72;1638720;85;21570;-77
2022/12/23 08:25:02;;;;;;;31.97;19.45;;;;;;;5.75;90.45;99669.13;1621711;84;20979;-78
2022/12/23 08:27:47;;;;;;;48.92;29.42;;;;;;;5.75;90.45;99668.70;1642103;85;21454;-77
2022/12/23 08:30:32;;;;;;;34.48;22.30;;;;;;;5.76;90.51;99670.40;1639942;85;20934;-76
2022/12/23 08:33:17;;;;;;;28.42;20.48;;;;;;;5.77;90.52;99664.40;1634341;85;21504;-78
2022/12/23 08:36:03;;;;;;;49.08;29.45;;;;;;;5.78;90.52;99660.97;1638239;85;20946;-78
2022/12/23 08:38:48;;;;;;;74.10;38.42;;;;;;;5.78;90.49;99662.69;1623629;86;20934;-78
2022/12/23 08:41:36;;;;;;;59.77;32.65;;;;;;;5.79;90.55;99660.10;1634122;85;20938;-78
2022/12/23 08:44:21;;;;;;;41.83;23.92;;;;;;;5.81;90.55;99658.80;1635742;85;21752;-78
2022/12/23 08:47:06;;;;;;;77.58;31.62;;;;;;;5.80;90.56;99654.54;1642075;85;20962;-78
2022/12/23 08:49:51;;;;;;;69.47;30.75;;;;;;;5.81;90.56;99654.95;1638549;85;21396;-78
2022/12/23 08:52:36;;;;;;;71.67;41.30;;;;;;;5.82;90.60;99657.50;1635406;85;21609;-78
2022/12/23 08:55:21;;;;;;;63.23;37.63;;;;;;;5.84;90.63;99656.20;1638536;83;21554;-77
2022/12/23 08:58:07;;;;;;;113.40;54.83;;;;;;;5.84;90.62;99650.64;1637329;85;20999;-77
2022/12/23 09:00:51;;;;;;;133.18;65.90;;;;;;;5.86;90.59;99651.47;1621201;86;21060;-77
2022/12/23 09:03:38;;;;;;;107.67;55.20;;;;;;;5.86;90.59;99651.90;1662711;84;21395;-77
2022/12/23 09:06:26;;;;;;;88.20;49.42;;;;;;;5.88;90.59;99651.02;1641239;85;20910;-77
2022/12/23 09:09:14;;;;;;;82.70;46.08;;;;;;;5.87;90.60;99648.03;1638030;85;20986;-77
2022/12/23 09:11:59;;;;;;;65.97;35.90;;;;;;;5.89;90.62;99654.03;1643012;85;21459;-78
2022/12/23 09:14:48;;;;;;;49.95;30.35;;;;;;;5.90;90.61;99644.61;1639328;85;21534;-77
2022/12/23 09:17:31;;;;;;;62.08;38.88;;;;;;;5.92;90.63;99642.87;1646448;85;20922;-77
2022/12/23 09:20:16;;;;;;;64.17;37.08;;;;;;;5.92;90.59;99633.46;1619921;85;20946;-77
2022/12/23 09:23:02;;;;;;;60.52;35.45;;;;;;;5.93;90.61;99631.75;1651224;85;20986;-77
2022/12/23 09:25:47;;;;;;;55.30;30.52;;;;;;;5.94;90.64;99627.87;1636471;85;21374;-77
2022/12/23 09:28:32;;;;;;;36.85;22.60;;;;;;;5.98;90.69;99628.69;1647343;86;21028;-77
2022/12/23 09:31:17;;;;;;;40.95;23.38;;;;;;;5.97;90.63;99627.84;1650845;85;21013;-77
2022/12/23 09:34:02;;;;;;;34.40;23.10;;;;;;;5.96;90.67;99623.58;1648278;84;21506;-77
2022/12/23 09:36:47;;;;;;;33.67;20.50;;;;;;;6.00;90.71;99620.53;1647897;85;21419;-77
2022/12/23 09:39:32;;;;;;;27.75;19.07;;;;;;;6.04;90.74;99620.06;1650905;84;20977;-77
2022/12/23 09:42:51;;;;;;;32.55;19.37;;;;;;;6.06;90.75;99614.47;1650249;84;20922;-77
2022/12/23 09:46:10;;;;;;;29.75;19.52;;;;;;;6.09;90.76;99615.72;1649354;85;21483;-77
2022/12/23 09:49:04;;;;;;;43.15;23.80;;;;;;;6.13;90.79;99619.94;1629045;86;20954;-77
2022/12/23 09:51:52;;;;;;;41.08;24.80;;;;;;;6.16;90.77;99622.46;1640478;85;21578;-77
2022/12/23 09:54:45;;;;;;;44.08;27.00;;;;;;;6.15;90.72;99620.77;1641603;85;20988;-78
2022/12/23 09:57:57;;;;;;;44.63;27.62;;;;;;;6.17;90.78;99620.31;1642346;85;20970;-78
2022/12/23 10:00:47;;;;;;;47.05;26.73;;;;;;;6.18;90.74;99619.00;1638320;85;21490;-77
2022/12/23 10:03:58;;;;;;;46.37;26.27;;;;;;;6.17;90.65;99618.59;1513161;84;5001634;-77
2022/12/23 10:06:48;;;;;;;42.53;25.57;;;;;;;6.17;90.70;99622.44;1595608;87;20929;-77
2022/12/23 10:09:38;;;;;;;42.78;25.57;;;;;;;6.18;90.77;99625.86;1650521;85;21549;-77
2022/12/23 10:12:31;;;;;;;48.95;28.15;;;;;;;6.23;90.84;99634.34;1648353;84;21577;-77
2022/12/23 10:15:27;;;;;;;49.40;29.00;;;;;;;6.26;90.85;99632.98;1650818;85;21482;-77
2022/12/23 10:18:32;;;;;;;52.85;26.90;;;;;;;6.30;90.86;99638.48;1649291;85;20970;-77
2022/12/23 10:21:42;;;;;;;42.38;25.23;;;;;;;6.34;90.87;99639.30;1650698;85;21384;-77
2022/12/23 10:24:35;;;;;;;41.28;24.02;;;;;;;6.38;90.90;99645.64;1652406;85;20977;-77
2022/12/23 10:27:39;;;;;;;29.95;20.62;;;;;;;6.41;90.86;99650.73;1651001;84;21360;-77
2022/12/23 10:30:24;;;;;;;36.13;21.30;;;;;;;6.42;90.84;99648.58;1651490;85;21065;-77
2022/12/23 10:33:41;;;;;;;34.00;19.55;;;;;;;6.45;90.89;99636.98;1650451;85;20974;-77
2022/12/23 10:36:52;;;;;;;32.38;19.37;;;;;;;6.50;90.86;99632.63;1648538;85;20950;-79
2022/12/23 10:39:48;;;;;;;30.30;18.37;;;;;;;6.52;90.83;99639.02;1648124;84;20978;-78
2022/12/23 10:42:37;;;;;;;29.00;17.65;;;;;;;6.55;90.85;99637.25;1650409;84;20966;-78
2022/12/23 10:45:53;;;;;;;26.35;17.52;;;;;;;6.59;90.89;99642.76;1646954;84;20981;-78
2022/12/23 10:49:10;;;;;;;;;;;;;;;6.64;90.88;99647.83;1650637;84;20942;-78
2022/12/23 10:52:20;;;;;;;23.85;15.80;;;;;;;6.69;90.94;99646.47;1635089;84;20608;-77
2022/12/23 10:55:08;;;;;;;23.60;15.88;;;;;;;6.74;90.94;99646.81;1615716;86;21033;-77
2022/12/23 10:57:53;;;;;;;25.00;15.83;;;;;;;6.79;90.95;99646.27;1649571;84;21456;-77
2022/12/23 11:00:42;;;;;;;22.52;14.58;;;;;;;6.82;90.92;99658.22;1618269;86;20930;-79
2022/12/23 11:03:38;;;;;;;20.95;14.28;;;;;;;6.87;90.97;99652.14;1647355;85;21002;-77
2022/12/23 11:06:24;;;;;;;20.55;14.03;;;;;;;6.91;90.94;99642.66;1615764;86;21455;-77
2022/12/23 11:09:13;;;;;;;;;;;;;;;6.94;90.91;99644.73;1650325;84;21538;-77
2022/12/23 11:12:01;;;;;;;21.10;13.53;;;;;;;6.97;90.93;99647.25;1651287;84;20332;-77
2022/12/23 11:14:56;;;;;;;19.98;13.50;;;;;;;7.01;90.92;99644.20;1597311;87;21384;-78
2022/12/23 11:17:41;;;;;;;21.57;13.83;;;;;;;7.06;90.93;99641.55;1650228;85;21341;-78
2022/12/23 11:20:26;;;;;;;21.68;14.05;;;;;;;7.09;90.94;99630.78;1644210;85;21474;-78
2022/12/23 11:23:24;;;;;;;20.08;12.43;;;;;;;7.10;90.87;99618.34;1649471;85;21473;-78
2022/12/23 11:26:13;;;;;;;24.35;13.05;;;;;;;7.13;90.87;99605.42;1585803;88;21605;-77
2022/12/23 11:29:06;;;;;;;20.55;14.25;;;;;;;7.13;90.86;99613.58;1650123;85;20978;-77
2022/12/23 11:31:51;;;;;;;19.27;13.90;;;;;;;7.16;90.95;99627.66;1651908;85;21500;-77
2022/12/23 11:34:37;;;;;;;21.42;14.93;;;;;;;7.18;90.95;99622.91;1643918;85;21739;-78
2022/12/23 11:37:42;;;;;;;17.12;13.35;;;;;;;7.23;90.97;99633.10;1644710;85;20946;-78
2022/12/23 11:40:35;;;;;;;20.00;13.77;;;;;;;7.25;90.98;99642.92;1641535;85;20962;-78
2022/12/23 11:43:21;;;;;;;15.88;11.10;;;;;;;7.28;90.99;99655.26;1647793;85;20934;-78
2022/12/23 11:46:17;;;;;;;12.53;9.98;;;;;;;7.32;90.98;99652.19;1648788;85;20974;-78
2022/12/23 11:49:13;;;;;;;12.68;10.53;;;;;;;7.35;91.01;99646.99;1647268;85;21422;-78
2022/12/23 11:52:13;;;;;;;14.03;11.25;;;;;;;7.38;91.00;99657.22;1603653;87;22062;-78
2022/12/23 11:55:01;;;;;;;14.87;11.12;;;;;;;7.39;90.96;99672.22;1627224;85;21448;-78
2022/12/23 11:57:48;;;;;;;13.25;10.10;;;;;;;7.40;90.96;99682.91;1639760;84;20958;-78
2022/12/23 12:00:40;;;;;;;15.55;9.93;;;;;;;7.40;90.96;99691.91;1650585;85;21080;-78
2022/12/23 12:03:30;;;;;;;16.00;10.20;;;;;;;7.40;90.92;99699.63;1649645;85;20962;-78
2022/12/23 12:06:18;;;;;;;18.40;11.83;;;;;;;7.37;90.91;99701.81;1648398;85;20946;-78
2022/12/23 12:09:05;;;;;;;18.07;11.05;;;;;;;7.37;90.92;99692.82;1625262;86;20962;-78
2022/12/23 12:11:55;;;;;;;17.57;11.18;;;;;;;7.37;90.91;99699.69;1650477;85;21428;-78
2022/12/23 12:14:51;;;;;;;18.80;11.93;;;;;;;7.36;90.88;99713.42;1610063;86;20970;-78
2022/12/23 12:17:48;;;;;;;17.30;11.12;;;;;;;7.37;90.94;99713.83;1581474;87;21496;-78
2022/12/23 12:20:41;;;;;;;18.90;11.25;;;;;;;7.36;90.93;99715.55;1604521;87;20936;-78
2022/12/23 12:23:51;;;;;;;19.37;12.40;;;;;;;7.36;90.91;99714.70;1650007;85;20935;-77
2022/12/23 12:26:37;;;;;;;22.98;12.33;;;;;;;7.36;90.92;99714.70;1648422;85;20990;-77
2022/12/23 12:29:28;;;;;;;;;;;;;;;7.35;90.96;99711.72;1639085;84;20934;-77
2022/12/23 12:32:36;;;;;;;19.37;10.72;;;;;;;7.37;90.98;99705.67;1634393;85;20130;-77
2022/12/23 12:35:36;;;;;;;11.40;7.97;;;;;;;7.41;90.98;99704.75;1634807;85;21361;-77
2022/12/23 12:38:28;;;;;;;11.60;8.63;;;;;;;7.43;90.96;99706.01;1631088;84;20978;-78
2022/12/23 12:41:18;;;;;;;9.40;7.70;;;;;;;7.46;91.01;99706.80;1634258;85;21443;-78
2022/12/23 12:44:45;;;;;;;11.68;8.58;;;;;;;7.49;91.01;99715.75;1634692;85;20971;-78
2022/12/23 12:47:38;;;;;;;12.35;8.93;;;;;;;7.52;91.02;99714.41;1529203;92;21030;-78
2022/12/23 12:50:31;;;;;;;10.32;7.92;;;;;;;7.55;91.01;99716.08;1502154;93;21079;-78
2022/12/23 12:53:19;;;;;;;12.55;7.60;;;;;;;7.58;91.01;99717.31;1503012;93;21078;-78
2022/12/23 12:56:15;;;;;;;7.78;6.50;;;;;;;7.61;91.04;99716.82;1504650;93;21591;-78
2022/12/23 12:58:59;;;;;;;6.80;6.03;;;;;;;7.64;90.99;99709.48;1504434;93;21094;-78
2022/12/23 13:02:05;;;;;;;7.08;6.33;;;;;;;7.63;90.92;99709.07;1507205;91;21553;-77
2022/12/23 13:05:22;;;;;;;7.10;5.47;;;;;;;7.60;90.88;99705.27;1505610;91;21111;-77
2022/12/23 13:08:34;;;;;;;7.42;6.17;;;;;;;7.57;90.83;99709.19;1492482;93;21587;-77
2022/12/23 13:11:44;;;;;;;9.03;6.20;;;;;;;7.53;90.84;99711.40;1502880;93;21527;-77
2022/12/23 13:14:39;;;;;;;8.33;6.83;;;;;;;7.52;90.90;99721.28;1505224;93;21069;-77
2022/12/23 13:17:47;;;;;;;7.72;6.72;;;;;;;7.51;90.93;99723.00;1495228;89;21494;-77
2022/12/23 13:20:46;;;;;;;7.30;6.33;;;;;;;7.52;90.93;99728.56;1591017;88;21012;-77
2022/12/23 13:24:16;;;;;;;11.70;8.20;;;;;;;7.51;90.94;99724.29;1634928;85;21467;-77
2022/12/23 13:27:22;;;;;;;9.93;7.03;;;;;;;7.52;90.92;99733.70;1644472;85;20929;-77
2022/12/23 13:30:13;;;;;;;8.73;6.83;;;;;;;7.51;90.93;99741.01;1590185;88;21623;-77
2022/12/23 13:33:27;;;;;;;12.10;7.47;;;;;;;7.51;90.88;99745.30;1547143;89;21509;-77
2022/12/23 13:36:38;;;;;;;9.45;7.72;;;;;;;7.48;90.83;99738.92;1525844;91;21062;-77
2022/12/23 13:39:56;;;;;;;8.65;7.03;;;;;;;7.46;90.83;99739.39;1516569;92;21050;-77